sensor_id;sensor_type;location;lat;lon;timestamp;P1;durP1;ratioP1;P2;durP2;ratioP2
67869;SDS011;54673;52.262;6.830;2023-04-19T00:00:29;3.78;;;3.00;;
67869;SDS011;54673;52.262;6.830;2023-04-19T00:02:55;3.63;;;2.60;;
67869;SDS011;54673;52.262;6.830;2023-04-19T00:05:21;5.15;;;3.10;;
67869;SDS011;54673;52.262;6.830;2023-04-19T00:07:49;4.60;;;2.97;;
67869;SDS011;54673;52.262;6.830;2023-04-19T00:10:15;3.75;;;3.10;;
67869;SDS011;54673;52.262;6.830;2023-04-19T00:12:40;3.43;;;2.90;;
67869;SDS011;54673;52.262;6.830;2023-04-19T00:15:06;5.00;;;3.17;;
67869;SDS011;54673;52.262;6.830;2023-04-19T00:17:33;3.60;;;2.90;;
67869;SDS011;54673;52.262;6.830;2023-04-19T00:19:58;4.83;;;3.03;;
67869;SDS011;54673;52.262;6.830;2023-04-19T00:22:24;3.75;;;2.88;;
67869;SDS011;54673;52.262;6.830;2023-04-19T00:24:50;4.73;;;3.00;;
67869;SDS011;54673;52.262;6.830;2023-04-19T00:27:16;4.20;;;3.08;;
67869;SDS011;54673;52.262;6.830;2023-04-19T00:29:42;3.33;;;2.83;;
67869;SDS011;54673;52.262;6.830;2023-04-19T00:32:08;5.43;;;3.35;;
67869;SDS011;54673;52.262;6.830;2023-04-19T00:34:33;4.90;;;3.30;;
67869;SDS011;54673;52.262;6.830;2023-04-19T00:36:59;4.00;;;3.10;;
67869;SDS011;54673;52.262;6.830;2023-04-19T00:39:24;4.70;;;3.28;;
67869;SDS011;54673;52.262;6.830;2023-04-19T00:41:50;3.43;;;2.80;;
67869;SDS011;54673;52.262;6.830;2023-04-19T00:44:17;4.18;;;2.95;;
67869;SDS011;54673;52.262;6.830;2023-04-19T00:46:42;4.07;;;3.00;;
67869;SDS011;54673;52.262;6.830;2023-04-19T00:49:08;4.73;;;2.93;;
67869;SDS011;54673;52.262;6.830;2023-04-19T00:51:34;4.18;;;3.50;;
67869;SDS011;54673;52.262;6.830;2023-04-19T00:54:01;3.47;;;2.90;;
67869;SDS011;54673;52.262;6.830;2023-04-19T00:56:27;4.32;;;3.08;;
67869;SDS011;54673;52.262;6.830;2023-04-19T00:58:53;5.43;;;3.40;;
67869;SDS011;54673;52.262;6.830;2023-04-19T01:01:20;4.30;;;3.17;;
67869;SDS011;54673;52.262;6.830;2023-04-19T01:03:46;4.25;;;3.00;;
67869;SDS011;54673;52.262;6.830;2023-04-19T01:06:12;5.03;;;2.83;;
67869;SDS011;54673;52.262;6.830;2023-04-19T01:08:38;3.95;;;2.90;;
67869;SDS011;54673;52.262;6.830;2023-04-19T01:11:04;5.57;;;3.10;;
67869;SDS011;54673;52.262;6.830;2023-04-19T01:13:29;5.57;;;3.15;;
67869;SDS011;54673;52.262;6.830;2023-04-19T01:15:55;3.40;;;2.70;;
67869;SDS011;54673;52.262;6.830;2023-04-19T01:18:22;4.35;;;3.20;;
67869;SDS011;54673;52.262;6.830;2023-04-19T01:20:53;5.77;;;3.20;;
67869;SDS011;54673;52.262;6.830;2023-04-19T01:23:18;3.50;;;2.90;;
67869;SDS011;54673;52.262;6.830;2023-04-19T01:25:44;4.63;;;3.17;;
67869;SDS011;54673;52.262;6.830;2023-04-19T01:28:10;3.72;;;2.60;;
67869;SDS011;54673;52.262;6.830;2023-04-19T01:30:36;5.87;;;2.97;;
67869;SDS011;54673;52.262;6.830;2023-04-19T01:33:01;3.75;;;2.63;;
67869;SDS011;54673;52.262;6.830;2023-04-19T01:35:27;3.80;;;2.80;;
67869;SDS011;54673;52.262;6.830;2023-04-19T01:37:52;3.45;;;2.80;;
67869;SDS011;54673;52.262;6.830;2023-04-19T01:40:21;4.27;;;3.00;;
67869;SDS011;54673;52.262;6.830;2023-04-19T01:42:48;4.43;;;2.70;;
67869;SDS011;54673;52.262;6.830;2023-04-19T01:45:13;3.10;;;2.63;;
67869;SDS011;54673;52.262;6.830;2023-04-19T01:47:39;4.82;;;2.90;;
67869;SDS011;54673;52.262;6.830;2023-04-19T01:50:05;3.70;;;2.50;;
67869;SDS011;54673;52.262;6.830;2023-04-19T01:52:31;3.50;;;2.60;;
67869;SDS011;54673;52.262;6.830;2023-04-19T01:54:56;3.73;;;2.60;;
67869;SDS011;54673;52.262;6.830;2023-04-19T01:57:22;4.57;;;2.83;;
67869;SDS011;54673;52.262;6.830;2023-04-19T01:59:47;3.30;;;2.70;;
67869;SDS011;54673;52.262;6.830;2023-04-19T02:02:14;6.17;;;2.70;;
67869;SDS011;54673;52.262;6.830;2023-04-19T02:04:39;3.75;;;2.50;;
67869;SDS011;54673;52.262;6.830;2023-04-19T02:07:05;3.70;;;2.47;;
67869;SDS011;54673;52.262;6.830;2023-04-19T02:09:34;2.92;;;2.63;;
67869;SDS011;54673;52.262;6.830;2023-04-19T02:12:00;2.73;;;2.40;;
67869;SDS011;54673;52.262;6.830;2023-04-19T02:14:26;2.90;;;2.60;;
67869;SDS011;54673;52.262;6.830;2023-04-19T02:16:51;3.13;;;2.27;;
67869;SDS011;54673;52.262;6.830;2023-04-19T02:19:17;5.73;;;2.53;;
67869;SDS011;54673;52.262;6.830;2023-04-19T02:21:42;4.13;;;2.67;;
67869;SDS011;54673;52.262;6.830;2023-04-19T02:24:08;3.43;;;2.40;;
67869;SDS011;54673;52.262;6.830;2023-04-19T02:26:34;3.13;;;2.50;;
67869;SDS011;54673;52.262;6.830;2023-04-19T02:28:59;3.50;;;2.60;;
67869;SDS011;54673;52.262;6.830;2023-04-19T02:31:25;3.70;;;2.60;;
67869;SDS011;54673;52.262;6.830;2023-04-19T02:33:50;2.90;;;2.53;;
67869;SDS011;54673;52.262;6.830;2023-04-19T02:36:16;3.92;;;2.42;;
67869;SDS011;54673;52.262;6.830;2023-04-19T02:38:41;2.83;;;2.53;;
67869;SDS011;54673;52.262;6.830;2023-04-19T02:41:07;3.30;;;2.60;;
67869;SDS011;54673;52.262;6.830;2023-04-19T02:43:36;3.90;;;2.20;;
67869;SDS011;54673;52.262;6.830;2023-04-19T02:46:01;4.40;;;2.85;;
67869;SDS011;54673;52.262;6.830;2023-04-19T02:48:27;3.60;;;2.60;;
67869;SDS011;54673;52.262;6.830;2023-04-19T02:50:53;4.23;;;2.20;;
67869;SDS011;54673;52.262;6.830;2023-04-19T02:53:18;3.90;;;2.40;;
67869;SDS011;54673;52.262;6.830;2023-04-19T02:55:44;4.70;;;2.63;;
67869;SDS011;54673;52.262;6.830;2023-04-19T02:58:09;3.60;;;2.38;;
67869;SDS011;54673;52.262;6.830;2023-04-19T03:00:35;3.33;;;2.40;;
67869;SDS011;54673;52.262;6.830;2023-04-19T03:03:01;3.47;;;2.47;;
67869;SDS011;54673;52.262;6.830;2023-04-19T03:05:28;3.33;;;2.37;;
67869;SDS011;54673;52.262;6.830;2023-04-19T03:07:54;5.68;;;2.60;;
67869;SDS011;54673;52.262;6.830;2023-04-19T03:10:19;2.70;;;2.37;;
67869;SDS011;54673;52.262;6.830;2023-04-19T03:12:45;3.03;;;2.50;;
67869;SDS011;54673;52.262;6.830;2023-04-19T03:15:10;3.07;;;2.50;;
67869;SDS011;54673;52.262;6.830;2023-04-19T03:17:36;2.72;;;2.53;;
67869;SDS011;54673;52.262;6.830;2023-04-19T03:20:02;3.37;;;2.60;;
67869;SDS011;54673;52.262;6.830;2023-04-19T03:22:34;3.63;;;2.40;;
67869;SDS011;54673;52.262;6.830;2023-04-19T03:25:00;3.43;;;2.70;;
67869;SDS011;54673;52.262;6.830;2023-04-19T03:27:26;2.85;;;2.40;;
67869;SDS011;54673;52.262;6.830;2023-04-19T03:29:51;4.17;;;2.67;;
67869;SDS011;54673;52.262;6.830;2023-04-19T03:32:17;2.87;;;2.30;;
67869;SDS011;54673;52.262;6.830;2023-04-19T03:34:43;3.72;;;2.90;;
67869;SDS011;54673;52.262;6.830;2023-04-19T03:37:08;3.73;;;2.80;;
67869;SDS011;54673;52.262;6.830;2023-04-19T03:39:34;2.92;;;2.30;;
67869;SDS011;54673;52.262;6.830;2023-04-19T03:41:59;2.93;;;2.37;;
67869;SDS011;54673;52.262;6.830;2023-04-19T03:44:25;2.87;;;2.33;;
67869;SDS011;54673;52.262;6.830;2023-04-19T03:46:51;3.63;;;2.33;;
67869;SDS011;54673;52.262;6.830;2023-04-19T03:49:16;3.30;;;2.42;;
67869;SDS011;54673;52.262;6.830;2023-04-19T03:51:42;5.20;;;2.77;;
67869;SDS011;54673;52.262;6.830;2023-04-19T03:54:08;3.60;;;2.67;;
67869;SDS011;54673;52.262;6.830;2023-04-19T03:56:34;3.23;;;2.60;;
67869;SDS011;54673;52.262;6.830;2023-04-19T03:58:59;2.93;;;2.60;;
67869;SDS011;54673;52.262;6.830;2023-04-19T04:01:25;2.43;;;2.23;;
67869;SDS011;54673;52.262;6.830;2023-04-19T04:03:50;3.77;;;2.50;;
67869;SDS011;54673;52.262;6.830;2023-04-19T04:06:16;4.38;;;2.70;;
67869;SDS011;54673;52.262;6.830;2023-04-19T04:08:42;3.73;;;2.60;;
67869;SDS011;54673;52.262;6.830;2023-04-19T04:11:07;3.90;;;2.60;;
67869;SDS011;54673;52.262;6.830;2023-04-19T04:13:33;3.63;;;2.60;;
67869;SDS011;54673;52.262;6.830;2023-04-19T04:15:58;4.70;;;2.77;;
67869;SDS011;54673;52.262;6.830;2023-04-19T04:18:24;4.18;;;2.58;;
67869;SDS011;54673;52.262;6.830;2023-04-19T04:20:51;3.75;;;2.58;;
67869;SDS011;54673;52.262;6.830;2023-04-19T04:23:16;4.13;;;2.83;;
67869;SDS011;54673;52.262;6.830;2023-04-19T04:25:42;3.70;;;2.67;;
67869;SDS011;54673;52.262;6.830;2023-04-19T04:28:07;4.13;;;3.17;;
67869;SDS011;54673;52.262;6.830;2023-04-19T04:30:33;3.80;;;2.83;;
67869;SDS011;54673;52.262;6.830;2023-04-19T04:32:59;3.38;;;2.65;;
67869;SDS011;54673;52.262;6.830;2023-04-19T04:35:25;4.47;;;2.97;;
67869;SDS011;54673;52.262;6.830;2023-04-19T04:37:51;4.28;;;2.60;;
67869;SDS011;54673;52.262;6.830;2023-04-19T04:40:20;3.00;;;2.50;;
67869;SDS011;54673;52.262;6.830;2023-04-19T04:42:46;3.83;;;2.70;;
67869;SDS011;54673;52.262;6.830;2023-04-19T04:45:11;3.43;;;2.80;;
67869;SDS011;54673;52.262;6.830;2023-04-19T04:47:37;3.75;;;2.53;;
67869;SDS011;54673;52.262;6.830;2023-04-19T04:50:03;3.47;;;2.57;;
67869;SDS011;54673;52.262;6.830;2023-04-19T04:52:29;3.55;;;2.42;;
67869;SDS011;54673;52.262;6.830;2023-04-19T04:54:54;3.73;;;2.87;;
67869;SDS011;54673;52.262;6.830;2023-04-19T04:57:20;3.22;;;2.90;;
67869;SDS011;54673;52.262;6.830;2023-04-19T04:59:45;5.00;;;3.10;;
67869;SDS011;54673;52.262;6.830;2023-04-19T05:02:12;3.05;;;2.50;;
67869;SDS011;54673;52.262;6.830;2023-04-19T05:04:38;4.77;;;2.60;;
67869;SDS011;54673;52.262;6.830;2023-04-19T05:07:04;3.85;;;2.58;;
67869;SDS011;54673;52.262;6.830;2023-04-19T05:09:30;3.63;;;2.57;;
67869;SDS011;54673;52.262;6.830;2023-04-19T05:11:55;3.10;;;2.55;;
67869;SDS011;54673;52.262;6.830;2023-04-19T05:14:21;3.10;;;2.47;;
67869;SDS011;54673;52.262;6.830;2023-04-19T05:16:47;3.73;;;2.53;;
67869;SDS011;54673;52.262;6.830;2023-04-19T05:19:12;3.67;;;2.17;;
67869;SDS011;54673;52.262;6.830;2023-04-19T05:21:38;4.03;;;2.60;;
67869;SDS011;54673;52.262;6.830;2023-04-19T05:24:03;3.22;;;2.28;;
67869;SDS011;54673;52.262;6.830;2023-04-19T05:26:29;3.50;;;2.50;;
67869;SDS011;54673;52.262;6.830;2023-04-19T05:28:56;3.50;;;2.33;;
67869;SDS011;54673;52.262;6.830;2023-04-19T05:31:21;3.20;;;2.40;;
67869;SDS011;54673;52.262;6.830;2023-04-19T05:33:47;3.22;;;2.20;;
67869;SDS011;54673;52.262;6.830;2023-04-19T05:36:12;4.07;;;2.33;;
67869;SDS011;54673;52.262;6.830;2023-04-19T05:38:38;3.07;;;2.27;;
67869;SDS011;54673;52.262;6.830;2023-04-19T05:41:03;3.97;;;2.20;;
67869;SDS011;54673;52.262;6.830;2023-04-19T05:43:29;3.80;;;2.60;;
67869;SDS011;54673;52.262;6.830;2023-04-19T05:45:55;3.92;;;2.30;;
67869;SDS011;54673;52.262;6.830;2023-04-19T05:48:21;3.37;;;2.60;;
67869;SDS011;54673;52.262;6.830;2023-04-19T05:50:46;3.85;;;1.90;;
67869;SDS011;54673;52.262;6.830;2023-04-19T05:53:12;3.00;;;2.27;;
67869;SDS011;54673;52.262;6.830;2023-04-19T05:55:37;2.20;;;2.00;;
67869;SDS011;54673;52.262;6.830;2023-04-19T05:58:03;4.50;;;2.35;;
67869;SDS011;54673;52.262;6.830;2023-04-19T06:00:28;3.83;;;2.20;;
67869;SDS011;54673;52.262;6.830;2023-04-19T06:02:54;2.72;;;2.10;;
67869;SDS011;54673;52.262;6.830;2023-04-19T06:05:20;3.13;;;2.00;;
67869;SDS011;54673;52.262;6.830;2023-04-19T06:07:46;2.58;;;2.10;;
67869;SDS011;54673;52.262;6.830;2023-04-19T06:10:12;3.57;;;2.37;;
67869;SDS011;54673;52.262;6.830;2023-04-19T06:12:39;2.40;;;1.80;;
67869;SDS011;54673;52.262;6.830;2023-04-19T06:15:05;5.63;;;2.00;;
67869;SDS011;54673;52.262;6.830;2023-04-19T06:17:31;5.50;;;2.40;;
67869;SDS011;54673;52.262;6.830;2023-04-19T06:19:56;4.33;;;2.00;;
67869;SDS011;54673;52.262;6.830;2023-04-19T06:22:22;2.85;;;1.80;;
67869;SDS011;54673;52.262;6.830;2023-04-19T06:24:47;2.20;;;1.73;;
67869;SDS011;54673;52.262;6.830;2023-04-19T06:27:14;3.95;;;1.85;;
67869;SDS011;54673;52.262;6.830;2023-04-19T06:29:40;5.40;;;1.90;;
67869;SDS011;54673;52.262;6.830;2023-04-19T06:32:06;3.95;;;1.75;;
67869;SDS011;54673;52.262;6.830;2023-04-19T06:34:32;4.80;;;1.80;;
67869;SDS011;54673;52.262;6.830;2023-04-19T06:36:58;3.47;;;2.07;;
67869;SDS011;54673;52.262;6.830;2023-04-19T06:39:24;2.83;;;1.80;;
67869;SDS011;54673;52.262;6.830;2023-04-19T06:41:49;3.80;;;1.97;;
67869;SDS011;54673;52.262;6.830;2023-04-19T06:44:15;3.10;;;1.80;;
67869;SDS011;54673;52.262;6.830;2023-04-19T06:46:40;3.03;;;2.20;;
67869;SDS011;54673;52.262;6.830;2023-04-19T06:49:06;3.25;;;2.00;;
67869;SDS011;54673;52.262;6.830;2023-04-19T06:51:32;3.80;;;2.20;;
67869;SDS011;54673;52.262;6.830;2023-04-19T06:53:57;3.20;;;2.17;;
67869;SDS011;54673;52.262;6.830;2023-04-19T06:59:06;2.78;;;1.80;;
67869;SDS011;54673;52.262;6.830;2023-04-19T07:01:32;4.37;;;1.90;;
67869;SDS011;54673;52.262;6.830;2023-04-19T07:03:57;3.33;;;1.83;;
67869;SDS011;54673;52.262;6.830;2023-04-19T07:06:23;2.93;;;1.80;;
67869;SDS011;54673;52.262;6.830;2023-04-19T07:08:48;2.50;;;1.90;;
67869;SDS011;54673;52.262;6.830;2023-04-19T07:11:14;2.63;;;1.77;;
67869;SDS011;54673;52.262;6.830;2023-04-19T07:13:40;3.07;;;2.13;;
67869;SDS011;54673;52.262;6.830;2023-04-19T07:16:05;5.00;;;1.90;;
67869;SDS011;54673;52.262;6.830;2023-04-19T07:18:32;3.00;;;1.77;;
67869;SDS011;54673;52.262;6.830;2023-04-19T07:20:57;3.88;;;1.98;;
67869;SDS011;54673;52.262;6.830;2023-04-19T07:23:23;5.03;;;2.00;;
67869;SDS011;54673;52.262;6.830;2023-04-19T07:25:48;3.70;;;1.90;;
67869;SDS011;54673;52.262;6.830;2023-04-19T07:28:14;3.83;;;1.80;;
67869;SDS011;54673;52.262;6.830;2023-04-19T07:30:40;4.50;;;1.70;;
67869;SDS011;54673;52.262;6.830;2023-04-19T07:33:06;3.00;;;1.88;;
67869;SDS011;54673;52.262;6.830;2023-04-19T07:35:32;2.65;;;1.77;;
67869;SDS011;54673;52.262;6.830;2023-04-19T07:37:59;3.23;;;1.50;;
67869;SDS011;54673;52.262;6.830;2023-04-19T07:40:24;5.10;;;1.80;;
67869;SDS011;54673;52.262;6.830;2023-04-19T07:42:50;2.20;;;2.00;;
67869;SDS011;54673;52.262;6.830;2023-04-19T07:45:16;2.60;;;1.90;;
67869;SDS011;54673;52.262;6.830;2023-04-19T07:47:41;4.03;;;1.88;;
67869;SDS011;54673;52.262;6.830;2023-04-19T07:50:07;5.17;;;2.00;;
67869;SDS011;54673;52.262;6.830;2023-04-19T07:52:33;3.70;;;1.92;;
67869;SDS011;54673;52.262;6.830;2023-04-19T07:54:59;2.93;;;1.70;;
67869;SDS011;54673;52.262;6.830;2023-04-19T07:57:25;2.80;;;2.00;;
67869;SDS011;54673;52.262;6.830;2023-04-19T07:59:50;2.37;;;1.80;;
67869;SDS011;54673;52.262;6.830;2023-04-19T08:02:20;2.17;;;1.77;;
67869;SDS011;54673;52.262;6.830;2023-04-19T08:04:45;3.67;;;1.73;;
67869;SDS011;54673;52.262;6.830;2023-04-19T08:07:13;2.53;;;1.77;;
67869;SDS011;54673;52.262;6.830;2023-04-19T08:09:39;2.47;;;1.60;;
67869;SDS011;54673;52.262;6.830;2023-04-19T08:12:04;4.13;;;1.45;;
67869;SDS011;54673;52.262;6.830;2023-04-19T08:14:30;2.27;;;1.57;;
67869;SDS011;54673;52.262;6.830;2023-04-19T08:16:56;2.53;;;1.80;;
67869;SDS011;54673;52.262;6.830;2023-04-19T08:19:21;2.83;;;1.73;;
67869;SDS011;54673;52.262;6.830;2023-04-19T08:21:47;2.33;;;1.70;;
67869;SDS011;54673;52.262;6.830;2023-04-19T08:24:12;2.73;;;1.90;;
67869;SDS011;54673;52.262;6.830;2023-04-19T08:26:38;1.77;;;1.40;;
67869;SDS011;54673;52.262;6.830;2023-04-19T08:29:04;2.67;;;1.30;;
67869;SDS011;54673;52.262;6.830;2023-04-19T08:31:30;2.40;;;1.50;;
67869;SDS011;54673;52.262;6.830;2023-04-19T08:33:56;2.40;;;1.70;;
67869;SDS011;54673;52.262;6.830;2023-04-19T08:36:24;2.70;;;1.45;;
67869;SDS011;54673;52.262;6.830;2023-04-19T08:38:52;2.40;;;1.53;;
67869;SDS011;54673;52.262;6.830;2023-04-19T08:41:17;2.70;;;1.50;;
67869;SDS011;54673;52.262;6.830;2023-04-19T08:43:44;2.95;;;1.50;;
67869;SDS011;54673;52.262;6.830;2023-04-19T08:46:14;2.27;;;1.47;;
67869;SDS011;54673;52.262;6.830;2023-04-19T08:48:40;3.85;;;1.50;;
67869;SDS011;54673;52.262;6.830;2023-04-19T08:51:07;2.87;;;1.50;;
67869;SDS011;54673;52.262;6.830;2023-04-19T08:53:33;3.70;;;1.70;;
67869;SDS011;54673;52.262;6.830;2023-04-19T08:55:59;1.95;;;1.73;;
67869;SDS011;54673;52.262;6.830;2023-04-19T08:58:26;2.13;;;1.80;;
67869;SDS011;54673;52.262;6.830;2023-04-19T09:00:54;1.95;;;1.52;;
67869;SDS011;54673;52.262;6.830;2023-04-19T09:03:20;2.67;;;1.57;;
67869;SDS011;54673;52.262;6.830;2023-04-19T09:05:46;1.67;;;1.40;;
67869;SDS011;54673;52.262;6.830;2023-04-19T09:08:31;2.73;;;1.70;;
67869;SDS011;54673;52.262;6.830;2023-04-19T09:10:57;1.58;;;1.33;;
67869;SDS011;54673;52.262;6.830;2023-04-19T09:13:24;1.83;;;1.20;;
67869;SDS011;54673;52.262;6.830;2023-04-19T09:15:50;3.50;;;1.38;;
67869;SDS011;54673;52.262;6.830;2023-04-19T09:18:17;2.78;;;1.52;;
67869;SDS011;54673;52.262;6.830;2023-04-19T09:20:44;2.37;;;1.33;;
67869;SDS011;54673;52.262;6.830;2023-04-19T09:23:10;2.13;;;1.50;;
67869;SDS011;54673;52.262;6.830;2023-04-19T09:25:38;2.17;;;1.50;;
67869;SDS011;54673;52.262;6.830;2023-04-19T09:28:10;2.43;;;1.30;;
67869;SDS011;54673;52.262;6.830;2023-04-19T09:30:38;5.40;;;1.33;;
67869;SDS011;54673;52.262;6.830;2023-04-19T09:33:04;3.07;;;1.50;;
67869;SDS011;54673;52.262;6.830;2023-04-19T09:35:44;1.65;;;1.27;;
67869;SDS011;54673;52.262;6.830;2023-04-19T09:38:12;2.13;;;1.20;;
67869;SDS011;54673;52.262;6.830;2023-04-19T09:40:38;2.80;;;1.20;;
67869;SDS011;54673;52.262;6.830;2023-04-19T09:43:05;1.60;;;1.20;;
67869;SDS011;54673;52.262;6.830;2023-04-19T09:45:43;2.50;;;1.20;;
67869;SDS011;54673;52.262;6.830;2023-04-19T09:48:10;2.85;;;1.10;;
67869;SDS011;54673;52.262;6.830;2023-04-19T09:53:22;3.10;;;1.50;;
67869;SDS011;54673;52.262;6.830;2023-04-19T09:55:48;1.80;;;1.42;;
67869;SDS011;54673;52.262;6.830;2023-04-19T09:58:15;1.63;;;1.23;;
67869;SDS011;54673;52.262;6.830;2023-04-19T10:00:42;2.97;;;1.23;;
67869;SDS011;54673;52.262;6.830;2023-04-19T10:03:09;3.67;;;1.30;;
67869;SDS011;54673;52.262;6.830;2023-04-19T10:05:38;1.30;;;1.00;;
67869;SDS011;54673;52.262;6.830;2023-04-19T10:08:06;2.08;;;1.20;;
67869;SDS011;54673;52.262;6.830;2023-04-19T10:10:32;2.37;;;1.23;;
67869;SDS011;54673;52.262;6.830;2023-04-19T10:12:58;2.20;;;1.50;;
67869;SDS011;54673;52.262;6.830;2023-04-19T10:15:26;3.00;;;1.25;;
67869;SDS011;54673;52.262;6.830;2023-04-19T10:17:54;2.33;;;1.20;;
67869;SDS011;54673;52.262;6.830;2023-04-19T10:20:30;1.80;;;1.23;;
67869;SDS011;54673;52.262;6.830;2023-04-19T10:23:01;1.50;;;1.20;;
67869;SDS011;54673;52.262;6.830;2023-04-19T10:25:27;3.47;;;1.27;;
67869;SDS011;54673;52.262;6.830;2023-04-19T10:27:54;1.90;;;1.17;;
67869;SDS011;54673;52.262;6.830;2023-04-19T10:30:20;1.23;;;0.93;;
67869;SDS011;54673;52.262;6.830;2023-04-19T10:32:51;1.50;;;1.20;;
67869;SDS011;54673;52.262;6.830;2023-04-19T10:35:38;1.80;;;1.30;;
67869;SDS011;54673;52.262;6.830;2023-04-19T10:43:20;1.43;;;1.17;;
67869;SDS011;54673;52.262;6.830;2023-04-19T10:45:46;1.20;;;1.00;;
67869;SDS011;54673;52.262;6.830;2023-04-19T10:53:46;2.28;;;1.52;;
67869;SDS011;54673;52.262;6.830;2023-04-19T10:56:12;2.13;;;1.33;;
67869;SDS011;54673;52.262;6.830;2023-04-19T11:04:04;1.27;;;1.00;;
67869;SDS011;54673;52.262;6.830;2023-04-19T11:06:33;1.73;;;1.08;;
67869;SDS011;54673;52.262;6.830;2023-04-19T11:09:23;1.60;;;1.03;;
67869;SDS011;54673;52.262;6.830;2023-04-19T11:12:40;2.78;;;1.58;;
67869;SDS011;54673;52.262;6.830;2023-04-19T11:17:13;1.60;;;1.37;;
67869;SDS011;54673;52.262;6.830;2023-04-19T11:19:46;1.60;;;1.50;;
67869;SDS011;54673;52.262;6.830;2023-04-19T11:22:16;2.83;;;1.27;;
67869;SDS011;54673;52.262;6.830;2023-04-19T11:24:45;4.15;;;1.17;;
67869;SDS011;54673;52.262;6.830;2023-04-19T11:27:13;1.77;;;1.23;;
67869;SDS011;54673;52.262;6.830;2023-04-19T11:29:39;1.58;;;1.33;;
67869;SDS011;54673;52.262;6.830;2023-04-19T11:32:05;2.00;;;1.10;;
67869;SDS011;54673;52.262;6.830;2023-04-19T11:34:35;1.65;;;1.15;;
67869;SDS011;54673;52.262;6.830;2023-04-19T11:37:02;1.97;;;1.20;;
67869;SDS011;54673;52.262;6.830;2023-04-19T11:39:27;2.08;;;1.10;;
67869;SDS011;54673;52.262;6.830;2023-04-19T11:41:53;1.83;;;1.10;;
67869;SDS011;54673;52.262;6.830;2023-04-19T11:44:18;1.88;;;1.20;;
67869;SDS011;54673;52.262;6.830;2023-04-19T11:46:56;1.10;;;1.00;;
67869;SDS011;54673;52.262;6.830;2023-04-19T11:49:29;1.73;;;1.20;;
67869;SDS011;54673;52.262;6.830;2023-04-19T11:51:57;1.57;;;1.00;;
67869;SDS011;54673;52.262;6.830;2023-04-19T11:54:24;1.65;;;1.23;;
67869;SDS011;54673;52.262;6.830;2023-04-19T11:56:57;1.90;;;1.20;;
67869;SDS011;54673;52.262;6.830;2023-04-19T11:59:23;1.80;;;1.15;;
67869;SDS011;54673;52.262;6.830;2023-04-19T12:01:49;2.30;;;1.20;;
67869;SDS011;54673;52.262;6.830;2023-04-19T12:04:15;1.83;;;1.10;;
67869;SDS011;54673;52.262;6.830;2023-04-19T12:06:40;2.23;;;1.50;;
67869;SDS011;54673;52.262;6.830;2023-04-19T12:09:06;1.70;;;1.35;;
67869;SDS011;54673;52.262;6.830;2023-04-19T12:11:41;1.63;;;1.33;;
67869;SDS011;54673;52.262;6.830;2023-04-19T12:16:38;1.40;;;1.17;;
67869;SDS011;54673;52.262;6.830;2023-04-19T12:19:10;2.08;;;1.52;;
67869;SDS011;54673;52.262;6.830;2023-04-19T12:21:38;2.05;;;1.10;;
67869;SDS011;54673;52.262;6.830;2023-04-19T12:24:04;2.00;;;1.33;;
67869;SDS011;54673;52.262;6.830;2023-04-19T12:26:30;1.33;;;1.10;;
67869;SDS011;54673;52.262;6.830;2023-04-19T12:28:56;1.53;;;1.20;;
67869;SDS011;54673;52.262;6.830;2023-04-19T12:31:23;1.50;;;1.10;;
67869;SDS011;54673;52.262;6.830;2023-04-19T12:33:49;1.83;;;1.20;;
67869;SDS011;54673;52.262;6.830;2023-04-19T12:36:15;2.33;;;1.20;;
67869;SDS011;54673;52.262;6.830;2023-04-19T12:38:41;1.40;;;1.20;;
67869;SDS011;54673;52.262;6.830;2023-04-19T12:41:06;1.67;;;1.20;;
67869;SDS011;54673;52.262;6.830;2023-04-19T12:43:32;3.30;;;1.33;;
67869;SDS011;54673;52.262;6.830;2023-04-19T12:45:58;2.80;;;1.42;;
67869;SDS011;54673;52.262;6.830;2023-04-19T12:48:26;1.77;;;1.40;;
67869;SDS011;54673;52.262;6.830;2023-04-19T12:50:52;1.25;;;0.98;;
67869;SDS011;54673;52.262;6.830;2023-04-19T12:53:18;1.33;;;1.10;;
67869;SDS011;54673;52.262;6.830;2023-04-19T12:55:44;1.93;;;1.30;;
67869;SDS011;54673;52.262;6.830;2023-04-19T12:58:14;1.42;;;1.33;;
67869;SDS011;54673;52.262;6.830;2023-04-19T13:00:40;1.50;;;1.23;;
67869;SDS011;54673;52.262;6.830;2023-04-19T13:03:06;2.47;;;1.40;;
67869;SDS011;54673;52.262;6.830;2023-04-19T13:05:32;3.47;;;1.45;;
67869;SDS011;54673;52.262;6.830;2023-04-19T13:07:58;1.30;;;1.20;;
67869;SDS011;54673;52.262;6.830;2023-04-19T13:10:24;1.45;;;1.35;;
67869;SDS011;54673;52.262;6.830;2023-04-19T13:12:49;2.90;;;1.30;;
67869;SDS011;54673;52.262;6.830;2023-04-19T13:15:15;3.28;;;1.30;;
67869;SDS011;54673;52.262;6.830;2023-04-19T13:17:43;1.37;;;1.10;;
67869;SDS011;54673;52.262;6.830;2023-04-19T13:20:08;1.48;;;1.27;;
67869;SDS011;54673;52.262;6.830;2023-04-19T13:22:34;1.67;;;1.30;;
67869;SDS011;54673;52.262;6.830;2023-04-19T13:25:00;1.33;;;1.10;;
67869;SDS011;54673;52.262;6.830;2023-04-19T13:27:26;2.33;;;1.33;;
67869;SDS011;54673;52.262;6.830;2023-04-19T13:29:53;3.13;;;1.30;;
67869;SDS011;54673;52.262;6.830;2023-04-19T13:32:19;1.88;;;1.50;;
67869;SDS011;54673;52.262;6.830;2023-04-19T13:34:45;2.10;;;1.40;;
67869;SDS011;54673;52.262;6.830;2023-04-19T13:37:11;2.53;;;1.30;;
67869;SDS011;54673;52.262;6.830;2023-04-19T13:39:36;1.60;;;1.10;;
67869;SDS011;54673;52.262;6.830;2023-04-19T13:42:02;3.27;;;1.30;;
67869;SDS011;54673;52.262;6.830;2023-04-19T13:44:28;1.58;;;1.40;;
67869;SDS011;54673;52.262;6.830;2023-04-19T13:46:53;2.07;;;1.23;;
67869;SDS011;54673;52.262;6.830;2023-04-19T13:49:20;2.22;;;1.40;;
67869;SDS011;54673;52.262;6.830;2023-04-19T13:51:45;1.33;;;1.23;;
67869;SDS011;54673;52.262;6.830;2023-04-19T13:54:11;2.33;;;1.10;;
67869;SDS011;54673;52.262;6.830;2023-04-19T13:56:36;2.97;;;1.30;;
67869;SDS011;54673;52.262;6.830;2023-04-19T13:59:02;2.50;;;1.20;;
67869;SDS011;54673;52.262;6.830;2023-04-19T14:01:27;1.20;;;1.00;;
67869;SDS011;54673;52.262;6.830;2023-04-19T14:03:53;1.60;;;1.17;;
67869;SDS011;54673;52.262;6.830;2023-04-19T14:06:18;1.75;;;1.30;;
67869;SDS011;54673;52.262;6.830;2023-04-19T14:08:44;1.70;;;1.60;;
67869;SDS011;54673;52.262;6.830;2023-04-19T14:11:10;2.03;;;1.35;;
67869;SDS011;54673;52.262;6.830;2023-04-19T14:13:36;1.73;;;1.20;;
67869;SDS011;54673;52.262;6.830;2023-04-19T14:16:01;1.48;;;1.10;;
67869;SDS011;54673;52.262;6.830;2023-04-19T14:18:27;3.50;;;1.27;;
67869;SDS011;54673;52.262;6.830;2023-04-19T14:20:53;1.30;;;1.20;;
67869;SDS011;54673;52.262;6.830;2023-04-19T14:23:19;1.90;;;1.40;;
67869;SDS011;54673;52.262;6.830;2023-04-19T14:25:45;3.35;;;1.38;;
67869;SDS011;54673;52.262;6.830;2023-04-19T14:28:10;1.80;;;1.40;;
67869;SDS011;54673;52.262;6.830;2023-04-19T14:30:36;1.27;;;1.10;;
67869;SDS011;54673;52.262;6.830;2023-04-19T14:33:02;1.20;;;1.10;;
67869;SDS011;54673;52.262;6.830;2023-04-19T14:35:28;1.07;;;0.97;;
67869;SDS011;54673;52.262;6.830;2023-04-19T14:37:54;2.13;;;1.53;;
67869;SDS011;54673;52.262;6.830;2023-04-19T14:40:20;1.58;;;1.48;;
67869;SDS011;54673;52.262;6.830;2023-04-19T14:42:46;1.77;;;1.40;;
67869;SDS011;54673;52.262;6.830;2023-04-19T14:45:12;1.67;;;1.20;;
67869;SDS011;54673;52.262;6.830;2023-04-19T14:47:37;1.30;;;1.00;;
67869;SDS011;54673;52.262;6.830;2023-04-19T14:50:03;1.98;;;1.10;;
67869;SDS011;54673;52.262;6.830;2023-04-19T14:52:29;1.17;;;0.97;;
67869;SDS011;54673;52.262;6.830;2023-04-19T14:54:55;1.20;;;1.10;;
67869;SDS011;54673;52.262;6.830;2023-04-19T14:57:21;1.30;;;1.20;;
67869;SDS011;54673;52.262;6.830;2023-04-19T14:59:47;0.90;;;0.80;;
67869;SDS011;54673;52.262;6.830;2023-04-19T15:02:13;1.70;;;1.10;;
67869;SDS011;54673;52.262;6.830;2023-04-19T15:04:38;1.40;;;1.30;;
67869;SDS011;54673;52.262;6.830;2023-04-19T15:07:04;1.10;;;1.00;;
67869;SDS011;54673;52.262;6.830;2023-04-19T15:09:30;1.43;;;1.30;;